Time;durP1;ratioP1;P1;durP2;ratioP2;P2;SDS_P1;SDS_P2;PMS_P1;PMS_P2;Temp;Humidity;BMP_temperature;BMP_pressure;BME280_temperature;BME280_humidity;BME280_pressure;Samples;Min_cycle;Max_cycle;Signal;HPM_P1;HPM_P2
2022/11/01 00:01:43;;;;;;;30.15;14.52;;;;;;;;;;7383497;19;20003;-74
2022/11/01 00:04:08;;;;;;;24.08;13.27;;;;;;;;;;7384708;19;19999;-75
2022/11/01 00:06:34;;;;;;;22.52;12.68;;;;;;;;;;7382958;19;20006;-76
2022/11/01 00:09:00;;;;;;;25.38;14.23;;;;;;;;;;7383133;19;20452;-74
2022/11/01 00:11:25;;;;;;;25.90;14.02;;;;;;;;;;7380988;19;20091;-74
2022/11/01 00:13:51;;;;;;;23.48;14.25;;;;;;;;;;7383402;19;20007;-74
2022/11/01 00:16:17;;;;;;;28.90;13.65;;;;;;;;;;7383079;19;20023;-74
2022/11/01 00:18:42;;;;;;;22.45;13.18;;;;;;;;;;7384521;19;20027;-76
2022/11/01 00:21:09;;;;;;;24.45;13.82;;;;;;;;;;7382871;19;20073;-75
2022/11/01 00:23:36;;;;;;;33.72;13.60;;;;;;;;;;7382487;19;20002;-75
2022/11/01 00:26:02;;;;;;;27.30;13.95;;;;;;;;;;7384796;19;20014;-74
2022/11/01 00:28:28;;;;;;;27.27;13.68;;;;;;;;;;7384187;19;19999;-75
2022/11/01 00:30:55;;;;;;;24.10;13.20;;;;;;;;;;7383483;19;20003;-74
2022/11/01 00:33:20;;;;;;;24.83;13.40;;;;;;;;;;7383441;19;20007;-75
2022/11/01 00:35:47;;;;;;;27.25;13.63;;;;;;;;;;7384298;19;20015;-75
2022/11/01 00:38:13;;;;;;;20.80;12.07;;;;;;;;;;7384438;19;20007;-74
2022/11/01 00:40:38;;;;;;;25.40;13.30;;;;;;;;;;7385922;19;19999;-75
2022/11/01 00:43:04;;;;;;;20.35;13.07;;;;;;;;;;7383727;19;20041;-75
2022/11/01 00:45:29;;;;;;;23.80;12.73;;;;;;;;;;7384731;19;20009;-75
2022/11/01 00:47:54;;;;;;;24.38;13.10;;;;;;;;;;7387259;19;20024;-75
2022/11/01 00:50:20;;;;;;;23.08;12.57;;;;;;;;;;7390961;19;20705;-75
2022/11/01 00:52:45;;;;;;;30.27;13.43;;;;;;;;;;7389223;19;20524;-75
2022/11/01 00:55:11;;;;;;;20.25;13.18;;;;;;;;;;7388657;19;20383;-75
2022/11/01 00:57:36;;;;;;;26.00;11.82;;;;;;;;;;7390918;19;20019;-76
2022/11/01 01:00:03;;;;;;;29.58;13.38;;;;;;;;;;7391233;19;20037;-75
2022/11/01 01:02:28;;;;;;;24.63;13.40;;;;;;;;;;7390559;19;20003;-74
2022/11/01 01:04:53;;;;;;;23.35;11.82;;;;;;;;;;7388714;19;20497;-75
2022/11/01 01:07:19;;;;;;;25.42;12.73;;;;;;;;;;7390789;19;20007;-76
2022/11/01 01:09:44;;;;;;;20.17;12.18;;;;;;;;;;7389004;19;20003;-75
2022/11/01 01:12:09;;;;;;;24.55;11.73;;;;;;;;;;7387680;19;20010;-75
2022/11/01 01:14:36;;;;;;;23.75;12.18;;;;;;;;;;7386659;19;20027;-75
2022/11/01 01:17:01;;;;;;;23.77;13.57;;;;;;;;;;7388682;19;20007;-75
2022/11/01 01:19:28;;;;;;;24.30;13.43;;;;;;;;;;7390014;19;20006;-75
2022/11/01 01:21:54;;;;;;;22.35;13.20;;;;;;;;;;7387614;19;20006;-75
2022/11/01 01:24:20;;;;;;;24.88;14.05;;;;;;;;;;7386988;19;20075;-74
2022/11/01 01:26:45;;;;;;;25.52;14.38;;;;;;;;;;7390039;19;19999;-74
2022/11/01 01:29:10;;;;;;;26.20;13.65;;;;;;;;;;7389482;19;20448;-76
2022/11/01 01:31:36;;;;;;;24.60;14.30;;;;;;;;;;7385951;19;20010;-73
2022/11/01 01:34:01;;;;;;;25.42;14.45;;;;;;;;;;7388423;19;20003;-75
2022/11/01 01:36:26;;;;;;;21.92;13.30;;;;;;;;;;7389377;19;20507;-74
2022/11/01 01:38:52;;;;;;;23.63;13.93;;;;;;;;;;7388960;19;20125;-75
2022/11/01 01:44:40;;;;;;;22.33;12.65;;;;;;;;;;7389191;19;20037;-75
2022/11/01 01:47:07;;;;;;;24.40;13.20;;;;;;;;;;7388695;19;20114;-75
2022/11/01 01:49:32;;;;;;;22.75;13.95;;;;;;;;;;7388465;19;20449;-75
2022/11/01 01:51:57;;;;;;;27.13;13.68;;;;;;;;;;7386835;19;20024;-75
2022/11/01 01:54:23;;;;;;;27.83;13.30;;;;;;;;;;7384853;19;20002;-75
2022/11/01 01:56:48;;;;;;;27.02;13.95;;;;;;;;;;7389035;19;19998;-75
2022/11/01 01:59:14;;;;;;;29.23;14.68;;;;;;;;;;7388359;19;20002;-74
2022/11/01 02:01:40;;;;;;;28.40;13.95;;;;;;;;;;7386510;19;20010;-75
2022/11/01 02:04:10;;;;;;;23.20;12.93;;;;;;;;;;7388481;19;19998;-75
2022/11/01 02:06:36;;;;;;;23.85;13.95;;;;;;;;;;7386700;19;20507;-73
2022/11/01 02:09:03;;;;;;;24.08;13.70;;;;;;;;;;7388031;19;20034;-75
2022/11/01 02:11:28;;;;;;;25.13;13.45;;;;;;;;;;7386782;19;20031;-74
2022/11/01 02:13:54;;;;;;;28.50;14.40;;;;;;;;;;7386406;19;19998;-76
2022/11/01 02:16:32;;;;;;;25.60;13.10;;;;;;;;;;7389001;19;20073;-75
2022/11/01 02:19:06;;;;;;;27.05;14.25;;;;;;;;;;7388650;19;20508;-75
2022/11/01 02:21:55;;;;;;;21.88;13.38;;;;;;;;;;7387056;19;19998;-75
2022/11/01 02:24:56;;;;;;;27.25;14.85;;;;;;;;;;7390508;19;20002;-74
2022/11/01 02:28:04;;;;;;;22.75;13.43;;;;;;;;;;7385376;19;19999;-74
2022/11/01 02:30:55;;;;;;;23.95;13.35;;;;;;;;;;7387836;19;20369;-73
2022/11/01 02:33:28;;;;;;;;;;;;;;;;;;7387879;19;20002;-73
2022/11/01 02:36:10;;;;;;;20.58;11.98;;;;;;;;;;7388230;19;19922;-76
2022/11/01 02:38:41;;;;;;;23.55;13.65;;;;;;;;;;7386206;19;20516;-75
2022/11/01 02:41:16;;;;;;;21.33;12.98;;;;;;;;;;7386809;19;20014;-73
2022/11/01 02:43:52;;;;;;;20.75;12.40;;;;;;;;;;7389332;19;20492;-75
2022/11/01 02:47:05;;;;;;;25.50;13.65;;;;;;;;;;7387350;19;20010;-75
2022/11/01 02:49:08;;;;;;;22.58;13.35;;;;;;;;;;7387809;19;20006;-74
2022/11/01 02:51:35;;;;;;;26.52;13.43;;;;;;;;;;7389724;19;20115;-74
2022/11/01 02:54:19;;;;;;;23.00;13.02;;;;;;;;;;7385182;19;20076;-75
2022/11/01 02:56:44;;;;;;;23.10;13.07;;;;;;;;;;7387246;19;19994;-75
2022/11/01 02:59:18;;;;;;;25.02;13.68;;;;;;;;;;7385562;19;20009;-75
2022/11/01 03:01:49;;;;;;;25.08;13.55;;;;;;;;;;7385574;19;20002;-75
2022/11/01 03:04:15;;;;;;;26.30;13.85;;;;;;;;;;7386974;19;20002;-76
2022/11/01 03:06:53;;;;;;;29.27;14.30;;;;;;;;;;7386694;19;20014;-75
2022/11/01 03:09:22;;;;;;;25.52;13.70;;;;;;;;;;7386647;19;20007;-75
2022/11/01 03:11:59;;;;;;;25.38;13.68;;;;;;;;;;7382017;19;20014;-75
2022/11/01 03:14:40;;;;;;;23.50;13.48;;;;;;;;;;7385987;19;20013;-75
2022/11/01 03:17:17;;;;;;;24.10;13.18;;;;;;;;;;7388546;19;20034;-75
2022/11/01 03:19:51;;;;;;;23.50;12.98;;;;;;;;;;7384644;19;20003;-75
2022/11/01 03:22:33;;;;;;;24.45;13.90;;;;;;;;;;7385195;19;20003;-75
2022/11/01 03:25:37;;;;;;;22.77;12.55;;;;;;;;;;7387147;19;20006;-75
2022/11/01 03:28:10;;;;;;;22.58;13.18;;;;;;;;;;7386733;19;20010;-74
2022/11/01 03:30:37;;;;;;;22.05;13.73;;;;;;;;;;7385524;19;20069;-75
2022/11/01 03:33:03;;;;;;;20.67;12.52;;;;;;;;;;7383510;19;20006;-75
2022/11/01 03:35:35;;;;;;;23.65;12.70;;;;;;;;;;7384059;19;20028;-74
2022/11/01 03:38:05;;;;;;;24.60;12.52;;;;;;;;;;7386296;19;19998;-73
2022/11/01 03:43:05;;;;;;;25.50;14.05;;;;;;;;;;7383989;19;20035;-66
2022/11/01 03:45:36;;;;;;;21.38;13.02;;;;;;;;;;7386171;19;19999;-67
2022/11/01 03:48:04;;;;;;;21.98;14.05;;;;;;;;;;7386618;19;19999;-67
2022/11/01 03:50:29;;;;;;;24.45;14.40;;;;;;;;;;7386512;19;20003;-67
2022/11/01 03:52:55;;;;;;;25.73;15.35;;;;;;;;;;7383719;19;20708;-67
2022/11/01 03:55:21;;;;;;;23.92;14.95;;;;;;;;;;7388273;19;20006;-67
2022/11/01 03:57:51;;;;;;;28.02;15.63;;;;;;;;;;7386531;19;20003;-67
2022/11/01 04:00:20;;;;;;;28.52;16.15;;;;;;;;;;7386082;19;20013;-68
2022/11/01 04:02:46;;;;;;;28.45;16.05;;;;;;;;;;7383798;19;20039;-68
2022/11/01 04:05:12;;;;;;;31.90;16.83;;;;;;;;;;7386060;19;20336;-68
2022/11/01 04:07:38;;;;;;;27.65;15.40;;;;;;;;;;7385902;19;20003;-68
2022/11/01 04:10:04;;;;;;;30.40;15.90;;;;;;;;;;7385898;19;19998;-68
2022/11/01 04:12:29;;;;;;;25.92;15.43;;;;;;;;;;7383981;19;20024;-68
2022/11/01 04:20:33;;;;;;;28.95;16.48;;;;;;;;;;7385880;19;20723;-68
2022/11/01 04:23:04;;;;;;;33.33;15.82;;;;;;;;;;7387550;19;20011;-68
2022/11/01 04:25:31;;;;;;;27.90;16.58;;;;;;;;;;7397488;19;20001;-68
2022/11/01 04:27:56;;;;;;;24.75;15.20;;;;;;;;;;7388595;19;20012;-68
2022/11/01 04:30:22;;;;;;;30.15;17.70;;;;;;;;;;7391253;19;19999;-68
2022/11/01 04:32:48;;;;;;;27.38;16.65;;;;;;;;;;7387106;19;20010;-68
2022/11/01 04:35:13;;;;;;;29.85;16.52;;;;;;;;;;7388604;19;19994;-68
2022/11/01 04:37:39;;;;;;;31.45;16.95;;;;;;;;;;7392865;19;20007;-68
2022/11/01 04:40:06;;;;;;;26.85;16.92;;;;;;;;;;7392702;19;19998;-68
2022/11/01 04:42:33;;;;;;;31.10;16.77;;;;;;;;;;7389742;19;20002;-68
2022/11/01 04:44:59;;;;;;;29.17;16.60;;;;;;;;;;7392850;19;20005;-68
2022/11/01 04:47:24;;;;;;;29.02;16.67;;;;;;;;;;7392780;19;19998;-68
2022/11/01 04:49:50;;;;;;;33.22;16.02;;;;;;;;;;7394418;19;19995;-68
2022/11/01 04:52:15;;;;;;;29.65;17.27;;;;;;;;;;7389224;19;20318;-68
2022/11/01 04:54:40;;;;;;;30.73;16.38;;;;;;;;;;7384807;19;20471;-68
2022/11/01 04:57:06;;;;;;;31.38;19.02;;;;;;;;;;7390276;19;20005;-68
2022/11/01 04:59:31;;;;;;;30.27;17.42;;;;;;;;;;7390431;19;19998;-68
2022/11/01 05:01:56;;;;;;;25.67;16.30;;;;;;;;;;7388384;19;20007;-68
2022/11/01 05:04:21;;;;;;;32.55;18.00;;;;;;;;;;7392301;19;20074;-68
2022/11/01 05:06:47;;;;;;;31.70;18.05;;;;;;;;;;7390660;19;20002;-68
2022/11/01 05:09:12;;;;;;;27.35;17.65;;;;;;;;;;7390677;19;20417;-68
2022/11/01 05:11:37;;;;;;;34.30;17.20;;;;;;;;;;7386064;19;20003;-69
2022/11/01 05:14:03;;;;;;;29.60;16.52;;;;;;;;;;7389436;19;20003;-68
2022/11/01 05:16:28;;;;;;;24.35;14.63;;;;;;;;;;7389076;19;20009;-69
2022/11/01 05:18:53;;;;;;;28.65;16.20;;;;;;;;;;7389151;19;20007;-68
2022/11/01 05:21:18;;;;;;;30.13;16.67;;;;;;;;;;7389361;19;20003;-69
2022/11/01 05:23:46;;;;;;;24.45;15.40;;;;;;;;;;7394705;19;19999;-69
2022/11/01 05:26:12;;;;;;;26.13;16.55;;;;;;;;;;7391525;19;20739;-69
2022/11/01 05:28:37;;;;;;;29.30;16.83;;;;;;;;;;7389377;19;20019;-69
2022/11/01 05:31:02;;;;;;;25.92;16.90;;;;;;;;;;7389261;19;20396;-69
2022/11/01 05:33:28;;;;;;;23.35;15.40;;;;;;;;;;7387606;19;20002;-69
2022/11/01 05:35:53;;;;;;;25.98;15.85;;;;;;;;;;7390609;19;20309;-69
2022/11/01 05:38:18;;;;;;;24.90;15.43;;;;;;;;;;7391290;19;20003;-68
2022/11/01 05:40:44;;;;;;;27.95;15.82;;;;;;;;;;7389504;19;20023;-69
2022/11/01 05:43:09;;;;;;;26.77;15.55;;;;;;;;;;7388468;19;20013;-69
2022/11/01 05:45:34;;;;;;;30.10;15.60;;;;;;;;;;7388723;19;20014;-69
2022/11/01 05:48:03;;;;;;;28.35;16.08;;;;;;;;;;7388980;19;20112;-69
2022/11/01 05:50:29;;;;;;;28.67;16.02;;;;;;;;;;7390179;19;19999;-69
2022/11/01 05:52:54;;;;;;;29.85;16.77;;;;;;;;;;7389816;19;20009;-69
2022/11/01 05:55:20;;;;;;;31.75;16.23;;;;;;;;;;7386373;19;20042;-68
2022/11/01 05:57:45;;;;;;;31.92;16.63;;;;;;;;;;7388498;19;20079;-68
2022/11/01 06:00:11;;;;;;;33.15;16.73;;;;;;;;;;7389679;19;20475;-68
2022/11/01 06:02:36;;;;;;;33.67;16.30;;;;;;;;;;7387453;19;20003;-69
2022/11/01 06:05:02;;;;;;;30.05;15.75;;;;;;;;;;7390103;19;19995;-68
2022/11/01 06:07:27;;;;;;;28.00;16.33;;;;;;;;;;7390011;19;20456;-68
2022/11/01 06:09:53;;;;;;;31.45;17.10;;;;;;;;;;7390205;19;20424;-67
2022/11/01 06:12:18;;;;;;;30.83;17.48;;;;;;;;;;7387869;19;20006;-69
2022/11/01 06:14:43;;;;;;;28.38;17.35;;;;;;;;;;7388195;19;20062;-68
2022/11/01 06:17:12;;;;;;;27.67;16.60;;;;;;;;;;7389508;19;20070;-69
2022/11/01 06:19:37;;;;;;;26.73;15.88;;;;;;;;;;7389699;19;20010;-69
2022/11/01 06:22:02;;;;;;;31.67;17.25;;;;;;;;;;7389546;19;19995;-68
2022/11/01 06:24:28;;;;;;;34.30;17.50;;;;;;;;;;7389052;19;20001;-68
2022/11/01 06:26:53;;;;;;;33.45;16.58;;;;;;;;;;7389063;19;20433;-68
2022/11/01 06:29:18;;;;;;;27.08;16.45;;;;;;;;;;7389322;19;20002;-68
2022/11/01 06:31:44;;;;;;;31.98;16.38;;;;;;;;;;7386186;19;20062;-69
2022/11/01 06:34:09;;;;;;;25.75;16.23;;;;;;;;;;7388739;19;20396;-69
2022/11/01 06:36:34;;;;;;;29.90;16.67;;;;;;;;;;7387460;19;20031;-68
2022/11/01 06:39:00;;;;;;;32.85;16.35;;;;;;;;;;7389487;19;20003;-69
2022/11/01 06:41:25;;;;;;;28.77;15.85;;;;;;;;;;7387819;19;20037;-69
2022/11/01 06:43:50;;;;;;;24.80;15.73;;;;;;;;;;7387745;19;20066;-69
2022/11/01 06:46:16;;;;;;;24.17;14.95;;;;;;;;;;7387254;19;20013;-69
2022/11/01 06:48:41;;;;;;;25.70;15.45;;;;;;;;;;7388832;19;20040;-69
2022/11/01 06:51:07;;;;;;;25.80;14.88;;;;;;;;;;7390908;19;20002;-69
2022/11/01 06:53:32;;;;;;;28.63;16.05;;;;;;;;;;7390552;19;20003;-68
2022/11/01 06:55:58;;;;;;;28.65;15.73;;;;;;;;;;7393146;19;20015;-69
2022/11/01 06:58:24;;;;;;;28.13;15.05;;;;;;;;;;7392349;19;20002;-69
2022/11/01 07:00:50;;;;;;;26.20;15.18;;;;;;;;;;7391352;19;20005;-69
2022/11/01 07:03:15;;;;;;;25.65;13.90;;;;;;;;;;7392171;19;20174;-68
2022/11/01 07:05:41;;;;;;;27.52;15.00;;;;;;;;;;7388373;19;20028;-69
2022/11/01 07:08:08;;;;;;;27.20;14.23;;;;;;;;;;7387722;19;20501;-68
2022/11/01 07:10:36;;;;;;;24.80;14.18;;;;;;;;;;7386009;19;20032;-69
2022/11/01 07:13:03;;;;;;;29.92;14.38;;;;;;;;;;7385329;19;20017;-68
2022/11/01 07:15:29;;;;;;;25.73;16.13;;;;;;;;;;7384177;19;20006;-68
2022/11/01 07:17:59;;;;;;;28.15;14.80;;;;;;;;;;7388181;19;20003;-68
2022/11/01 07:20:25;;;;;;;27.88;14.32;;;;;;;;;;7388556;19;20002;-69
2022/11/01 07:23:02;;;;;;;28.90;14.13;;;;;;;;;;7388863;19;20013;-67
2022/11/01 07:25:28;;;;;;;24.58;14.55;;;;;;;;;;7389921;19;20621;-68
2022/11/01 07:27:53;;;;;;;28.00;14.60;;;;;;;;;;7387850;19;20003;-68
2022/11/01 07:30:19;;;;;;;24.75;13.82;;;;;;;;;;7390051;19;20024;-68
2022/11/01 07:32:44;;;;;;;25.55;14.95;;;;;;;;;;7387415;19;20119;-68
2022/11/01 07:35:09;;;;;;;24.95;13.65;;;;;;;;;;7385307;19;19998;-69
2022/11/01 07:37:35;;;;;;;21.38;13.25;;;;;;;;;;7386143;19;20001;-68
2022/11/01 07:40:02;;;;;;;26.13;13.85;;;;;;;;;;7389951;19;20013;-71
2022/11/01 07:42:27;;;;;;;24.63;13.63;;;;;;;;;;7385632;19;20013;-67
2022/11/01 07:44:53;;;;;;;26.88;13.10;;;;;;;;;;7382119;19;20050;-67
2022/11/01 07:47:18;;;;;;;22.88;13.45;;;;;;;;;;7385713;19;20009;-67
2022/11/01 07:49:44;;;;;;;21.00;13.10;;;;;;;;;;7382807;19;20106;-67
2022/11/01 07:52:09;;;;;;;19.40;12.18;;;;;;;;;;7378651;19;19999;-67
2022/11/01 07:54:34;;;;;;;21.33;10.77;;;;;;;;;;7383481;19;20023;-68
2022/11/01 07:56:59;;;;;;;18.40;12.05;;;;;;;;;;7389502;19;19995;-68
2022/11/01 07:59:25;;;;;;;18.95;10.85;;;;;;;;;;7393545;19;20594;-68
2022/11/01 08:01:50;;;;;;;18.33;10.80;;;;;;;;;;7390942;19;20003;-69
2022/11/01 08:04:15;;;;;;;20.90;10.88;;;;;;;;;;7393138;19;19998;-69
2022/11/01 08:06:41;;;;;;;18.10;11.13;;;;;;;;;;7393251;19;19998;-67
2022/11/01 08:09:06;;;;;;;21.65;10.55;;;;;;;;;;7392938;19;19998;-67
2022/11/01 08:11:31;;;;;;;16.95;10.35;;;;;;;;;;7390836;19;20007;-67
2022/11/01 08:13:57;;;;;;;16.42;8.85;;;;;;;;;;7391846;19;20003;-68
2022/11/01 08:16:22;;;;;;;18.40;9.13;;;;;;;;;;7393443;19;20339;-69
2022/11/01 08:18:49;;;;;;;14.95;9.35;;;;;;;;;;7393119;19;20003;-69
2022/11/01 08:21:17;;;;;;;12.85;7.88;;;;;;;;;;7391422;19;20414;-69
2022/11/01 08:23:46;;;;;;;14.55;8.70;;;;;;;;;;7392510;19;20026;-69
2022/11/01 08:26:11;;;;;;;14.10;7.40;;;;;;;;;;7393363;19;20015;-69
2022/11/01 08:28:36;;;;;;;11.05;7.25;;;;;;;;;;7393067;19;19999;-68
2022/11/01 08:31:06;;;;;;;12.75;6.43;;;;;;;;;;7391020;19;20449;-68
2022/11/01 08:33:31;;;;;;;12.68;6.28;;;;;;;;;;7391663;19;19995;-69
2022/11/01 08:35:57;;;;;;;10.82;5.60;;;;;;;;;;7394142;19;20058;-69
2022/11/01 08:38:22;;;;;;;12.35;6.60;;;;;;;;;;7396719;19;20045;-69
2022/11/01 08:40:48;;;;;;;12.00;6.25;;;;;;;;;;7392265;19;20076;-68
2022/11/01 08:43:13;;;;;;;14.57;6.70;;;;;;;;;;7393153;19;20368;-68
2022/11/01 08:45:39;;;;;;;9.35;6.07;;;;;;;;;;7395692;19;19995;-68
2022/11/01 08:48:04;;;;;;;11.43;6.50;;;;;;;;;;7395929;19;20006;-68
2022/11/01 08:50:32;;;;;;;10.35;5.93;;;;;;;;;;7395417;19;20002;-70
2022/11/01 08:52:58;;;;;;;11.40;5.80;;;;;;;;;;7391353;19;20009;-69
2022/11/01 08:55:23;;;;;;;14.73;6.38;;;;;;;;;;7388097;19;19994;-69
2022/11/01 08:57:49;;;;;;;10.85;5.63;;;;;;;;;;7392335;19;20058;-68
2022/11/01 09:00:16;;;;;;;9.73;5.07;;;;;;;;;;7393167;19;19991;-68
2022/11/01 09:02:42;;;;;;;7.85;4.47;;;;;;;;;;7389256;19;20031;-67
2022/11/01 09:05:07;;;;;;;9.43;4.57;;;;;;;;;;7394670;19;20505;-69
2022/11/01 09:07:36;;;;;;;9.70;3.75;;;;;;;;;;7395193;19;20342;-67
2022/11/01 09:10:06;;;;;;;8.88;3.70;;;;;;;;;;7389247;19;20033;-68
2022/11/01 09:12:31;;;;;;;8.80;4.95;;;;;;;;;;7388735;19;20002;-67
2022/11/01 09:14:57;;;;;;;5.18;2.70;;;;;;;;;;7391593;19;20021;-69
2022/11/01 09:17:22;;;;;;;5.65;2.22;;;;;;;;;;7393686;19;20020;-67
2022/11/01 09:19:47;;;;;;;6.47;2.20;;;;;;;;;;7393633;19;20002;-66
2022/11/01 09:22:13;;;;;;;3.50;2.33;;;;;;;;;;7390743;19;20556;-67
2022/11/01 09:24:38;;;;;;;7.07;2.00;;;;;;;;;;7394208;19;20009;-66
2022/11/01 09:27:06;;;;;;;3.65;2.00;;;;;;;;;;7393034;19;20003;-67
2022/11/01 09:29:31;;;;;;;6.32;2.13;;;;;;;;;;7390319;19;20038;-67
2022/11/01 09:31:56;;;;;;;7.75;2.00;;;;;;;;;;7391879;19;19999;-68
2022/11/01 09:34:22;;;;;;;5.65;2.20;;;;;;;;;;7391004;19;20019;-71
2022/11/01 09:36:47;;;;;;;5.63;2.25;;;;;;;;;;7392433;19;20013;-72
2022/11/01 09:39:15;;;;;;;5.78;2.40;;;;;;;;;;7392489;19;19995;-81
2022/11/01 09:41:57;;;;;;;4.38;1.83;;;;;;;;;;7389773;19;20014;-70
2022/11/01 09:44:27;;;;;;;3.85;1.98;;;;;;;;;;7389363;19;20002;-68
2022/11/01 09:47:04;;;;;;;5.07;2.20;;;;;;;;;;7388216;19;20478;-70
2022/11/01 09:49:42;;;;;;;5.70;1.90;;;;;;;;;;7394219;19;20397;-70
2022/11/01 09:52:14;;;;;;;4.85;1.90;;;;;;;;;;7387657;19;20476;-70
2022/11/01 09:54:40;;;;;;;5.28;2.08;;;;;;;;;;7390242;19;20611;-68
2022/11/01 09:57:42;;;;;;;5.72;1.85;;;;;;;;;;7389337;19;20033;-73
2022/11/01 10:00:15;;;;;;;5.80;1.63;;;;;;;;;;7388672;19;19995;-67
2022/11/01 10:03:15;;;;;;;4.25;1.60;;;;;;;;;;7387079;19;20022;-68
2022/11/01 10:05:59;;;;;;;3.90;1.30;;;;;;;;;;7390238;19;20493;-76
2022/11/01 10:08:37;;;;;;;2.45;1.33;;;;;;;;;;7392667;19;20355;-71
2022/11/01 10:11:33;;;;;;;2.55;1.10;;;;;;;;;;7379416;19;20014;-69
2022/11/01 10:14:14;;;;;;;4.35;1.55;;;;;;;;;;7382819;19;20422;-70
2022/11/01 10:16:40;;;;;;;;;;;;;;;;;;7386558;19;20487;-70
2022/11/01 10:19:20;;;;;;;3.30;1.10;;;;;;;;;;7386297;19;19919;-69
2022/11/01 10:21:48;;;;;;;2.80;1.30;;;;;;;;;;7386211;19;20007;-71
2022/11/01 10:24:33;;;;;;;5.25;1.20;;;;;;;;;;7386036;19;20401;-70
2022/11/01 10:27:06;;;;;;;3.63;1.17;;;;;;;;;;7384197;19;20010;-70
2022/11/01 10:29:40;;;;;;;3.95;1.25;;;;;;;;;;7389118;19;20075;-72
2022/11/01 10:32:25;;;;;;;2.33;0.90;;;;;;;;;;7383442;19;20453;-70
2022/11/01 10:34:51;;;;;;;4.53;1.40;;;;;;;;;;7382489;19;20348;-70
2022/11/01 10:37:30;;;;;;;3.67;1.35;;;;;;;;;;7384456;19;20456;-71
2022/11/01 10:40:00;;;;;;;2.40;1.20;;;;;;;;;;7386398;19;20002;-70
2022/11/01 10:42:28;;;;;;;4.60;1.30;;;;;;;;;;7383649;19;20362;-71
2022/11/01 10:45:00;;;;;;;2.92;1.10;;;;;;;;;;7386988;19;20015;-71
2022/11/01 10:47:27;;;;;;;4.95;1.20;;;;;;;;;;7387492;19;20006;-71
2022/11/01 10:50:09;;;;;;;2.92;1.10;;;;;;;;;;7387515;19;20010;-72
2022/11/01 10:52:46;;;;;;;4.25;1.10;;;;;;;;;;7385229;19;20010;-73
2022/11/01 10:55:15;;;;;;;2.05;0.90;;;;;;;;;;7379213;19;20042;-73
2022/11/01 10:57:48;;;;;;;3.42;1.23;;;;;;;;;;7377896;19;20010;-72
2022/11/01 11:00:17;;;;;;;4.40;1.20;;;;;;;;;;7380849;19;20372;-71
2022/11/01 11:03:17;;;;;;;0.95;0.80;;;;;;;;;;7382926;19;20026;-71
2022/11/01 11:05:42;;;;;;;6.63;1.20;;;;;;;;;;7383672;19;20019;-72
2022/11/01 11:08:17;;;;;;;4.28;1.10;;;;;;;;;;7384649;19;20003;-72
2022/11/01 11:10:43;;;;;;;2.63;0.90;;;;;;;;;;7387315;19;20107;-73
2022/11/01 11:13:10;;;;;;;2.90;1.23;;;;;;;;;;7381717;19;20037;-73
2022/11/01 11:15:44;;;;;;;1.70;0.80;;;;;;;;;;7385775;19;20452;-76
2022/11/01 11:18:29;;;;;;;1.42;1.15;;;;;;;;;;7385439;19;20006;-72
2022/11/01 11:20:58;;;;;;;2.95;1.50;;;;;;;;;;7377029;19;20065;-71
2022/11/01 11:23:26;;;;;;;2.27;1.10;;;;;;;;;;7385570;19;20404;-73
2022/11/01 11:25:51;;;;;;;2.33;1.00;;;;;;;;;;7383045;19;20045;-73
2022/11/01 11:28:42;;;;;;;4.35;0.98;;;;;;;;;;7382996;19;20003;-76
2022/11/01 11:31:27;;;;;;;3.92;1.30;;;;;;;;;;7383129;19;20003;-75
2022/11/01 11:34:15;;;;;;;3.28;1.20;;;;;;;;;;7385213;19;19998;-76
2022/11/01 11:36:44;;;;;;;3.17;1.15;;;;;;;;;;7386811;19;20073;-76
2022/11/01 11:39:28;;;;;;;3.67;1.30;;;;;;;;;;7384335;19;20488;-77
2022/11/01 11:42:17;;;;;;;6.60;1.30;;;;;;;;;;7383522;19;20002;-79
2022/11/01 11:44:49;;;;;;;4.90;1.15;;;;;;;;;;7384388;19;20074;-78
2022/11/01 11:47:17;;;;;;;5.15;1.42;;;;;;;;;;7385586;19;20011;-79
2022/11/01 11:49:42;;;;;;;2.38;1.08;;;;;;;;;;7383967;19;20425;-79
2022/11/01 11:52:16;;;;;;;5.95;1.08;;;;;;;;;;7382672;19;20019;-79
2022/11/01 11:54:42;;;;;;;3.67;0.93;;;;;;;;;;7387589;19;20003;-79
2022/11/01 11:57:21;;;;;;;10.25;1.55;;;;;;;;;;7386855;19;20068;-76
2022/11/01 11:59:57;;;;;;;3.50;1.25;;;;;;;;;;7384769;19;20006;-77
2022/11/01 12:02:26;;;;;;;4.32;1.35;;;;;;;;;;7382599;19;20002;-79
2022/11/01 12:04:58;;;;;;;2.55;1.15;;;;;;;;;;7381943;19;20365;-77
2022/11/01 12:07:50;;;;;;;4.07;1.30;;;;;;;;;;7382969;19;20429;-79
2022/11/01 12:10:39;;;;;;;4.28;1.33;;;;;;;;;;7381991;19;20015;-79
2022/11/01 12:13:29;;;;;;;3.47;1.30;;;;;;;;;;7382487;19;20007;-82
2022/11/01 12:16:18;;;;;;;2.53;1.10;;;;;;;;;;7382414;19;20015;-78
2022/11/01 12:18:56;;;;;;;4.18;1.60;;;;;;;;;;7385852;19;20003;-80
2022/11/01 12:21:33;;;;;;;3.65;1.17;;;;;;;;;;7380662;19;20010;-79
2022/11/01 12:24:23;;;;;;;2.65;1.20;;;;;;;;;;7378232;19;20002;-79
2022/11/01 12:26:52;;;;;;;4.03;1.40;;;;;;;;;;7377972;19;20019;-76
2022/11/01 12:29:32;;;;;;;3.10;1.00;;;;;;;;;;7379153;19;20084;-79
2022/11/01 12:32:30;;;;;;;4.47;1.30;;;;;;;;;;7377676;19;20066;-78
2022/11/01 12:35:00;;;;;;;4.43;1.10;;;;;;;;;;7378283;19;20031;-77
2022/11/01 12:37:34;;;;;;;6.03;1.63;;;;;;;;;;7373435;19;20426;-78
2022/11/01 12:40:11;;;;;;;3.00;0.90;;;;;;;;;;7377335;19;20351;-78
2022/11/01 12:42:46;;;;;;;2.67;1.08;;;;;;;;;;7378826;19;20023;-77
2022/11/01 12:45:31;;;;;;;4.60;1.20;;;;;;;;;;7386121;19;20009;-78
2022/11/01 12:48:04;;;;;;;4.18;1.20;;;;;;;;;;7388464;19;20006;-77
2022/11/01 12:50:43;;;;;;;4.32;1.02;;;;;;;;;;7389698;19;20006;-78
2022/11/01 12:53:43;;;;;;;4.50;1.15;;;;;;;;;;7388884;19;20039;-78
2022/11/01 12:56:09;;;;;;;4.63;1.10;;;;;;;;;;7390772;19;20005;-77
2022/11/01 12:58:35;;;;;;;4.28;1.10;;;;;;;;;;7391025;19;20517;-78
2022/11/01 13:01:25;;;;;;;5.55;1.20;;;;;;;;;;7388922;19;20452;-78
2022/11/01 13:04:25;;;;;;;5.78;1.50;;;;;;;;;;7390652;19;19995;-78
2022/11/01 13:06:57;;;;;;;4.25;1.10;;;;;;;;;;7387820;19;20019;-78
2022/11/01 13:09:28;;;;;;;2.60;0.93;;;;;;;;;;7389541;19;20002;-78
2022/11/01 13:11:59;;;;;;;4.05;1.00;;;;;;;;;;7387883;19;20313;-78
2022/11/01 13:14:36;;;;;;;2.72;1.20;;;;;;;;;;7390535;19;20002;-78
2022/11/01 13:17:10;;;;;;;3.03;0.93;;;;;;;;;;7391128;19;20219;-78
2022/11/01 13:19:57;;;;;;;1.92;1.00;;;;;;;;;;7390744;19;19998;-78
2022/11/01 13:22:51;;;;;;;3.88;1.10;;;;;;;;;;7387249;19;19999;-78
2022/11/01 13:25:35;;;;;;;2.92;1.17;;;;;;;;;;7391175;19;20010;-78
2022/11/01 13:28:15;;;;;;;3.10;1.15;;;;;;;;;;7393990;19;20350;-78
2022/11/01 13:30:51;;;;;;;5.60;1.43;;;;;;;;;;7390252;19;20009;-78
2022/11/01 13:33:31;;;;;;;3.63;1.38;;;;;;;;;;7387733;19;20283;-78
2022/11/01 13:36:10;;;;;;;2.97;1.20;;;;;;;;;;7389903;19;19999;-78
2022/11/01 13:38:40;;;;;;;4.03;1.02;;;;;;;;;;7389496;19;19998;-77
2022/11/01 13:41:18;;;;;;;5.82;1.20;;;;;;;;;;7388630;19;20444;-77
2022/11/01 13:43:50;;;;;;;2.92;1.15;;;;;;;;;;7389789;19;20001;-77
2022/11/01 13:46:49;;;;;;;2.78;1.23;;;;;;;;;;7389719;19;20534;-77
2022/11/01 13:49:27;;;;;;;3.95;1.50;;;;;;;;;;7389750;19;20465;-77
2022/11/01 13:52:09;;;;;;;6.57;1.88;;;;;;;;;;7386204;19;19999;-77
2022/11/01 13:54:39;;;;;;;5.00;1.40;;;;;;;;;;7387724;19;20082;-76
2022/11/01 13:57:10;;;;;;;7.20;1.50;;;;;;;;;;7390154;19;20369;-76
2022/11/01 13:59:36;;;;;;;3.15;1.35;;;;;;;;;;7389393;19;20549;-77
2022/11/01 14:02:23;;;;;;;5.07;1.20;;;;;;;;;;7387723;19;19998;-78
2022/11/01 14:05:03;;;;;;;3.50;1.10;;;;;;;;;;7389466;19;19999;-76
2022/11/01 14:07:37;;;;;;;4.28;1.20;;;;;;;;;;7389156;19;20098;-76
2022/11/01 14:10:20;;;;;;;2.78;1.00;;;;;;;;;;7389100;19;20340;-77
2022/11/01 14:13:05;;;;;;;4.85;1.20;;;;;;;;;;7385077;19;20034;-77
2022/11/01 14:15:35;;;;;;;4.55;1.38;;;;;;;;;;7386851;19;19995;-77
2022/11/01 14:18:06;;;;;;;3.05;1.00;;;;;;;;;;7388738;19;20006;-77
2022/11/01 14:20:32;;;;;;;6.57;1.58;;;;;;;;;;7388645;19;20617;-77
2022/11/01 14:22:58;;;;;;;5.07;1.30;;;;;;;;;;7386843;19;20028;-77
2022/11/01 14:25:31;;;;;;;3.75;1.10;;;;;;;;;;7388621;19;20005;-77
2022/11/01 14:28:17;;;;;;;3.33;1.20;;;;;;;;;;7388497;19;20018;-77
2022/11/01 14:30:45;;;;;;;6.45;1.80;;;;;;;;;;7387022;19;19999;-77
2022/11/01 14:33:18;;;;;;;4.22;1.73;;;;;;;;;;7385481;19;20015;-77
2022/11/01 14:35:55;;;;;;;7.80;1.58;;;;;;;;;;7386929;19;20010;-77
2022/11/01 14:38:30;;;;;;;6.28;1.50;;;;;;;;;;7387633;19;19994;-77
2022/11/01 14:40:58;;;;;;;2.80;1.20;;;;;;;;;;7387405;19;19998;-77
2022/11/01 14:43:30;;;;;;;5.80;1.45;;;;;;;;;;7390558;19;20001;-77
2022/11/01 14:46:07;;;;;;;5.15;1.50;;;;;;;;;;7387881;19;20036;-76
2022/11/01 14:48:49;;;;;;;2.75;1.13;;;;;;;;;;7387622;19;20014;-76
2022/11/01 14:51:47;;;;;;;7.55;1.60;;;;;;;;;;7386892;19;20003;-76
2022/11/01 14:54:22;;;;;;;4.15;1.20;;;;;;;;;;7386963;19;20058;-76
2022/11/01 14:56:53;;;;;;;4.68;1.40;;;;;;;;;;7388003;19;19999;-76
2022/11/01 14:59:20;;;;;;;;;;;;;;;;;;7388175;19;19994;-77
2022/11/01 15:01:48;;;;;;;5.65;1.38;;;;;;;;;;7386308;19;20354;-77